Terminal Aerodrome Forecast
Issued by NWS

Home | Current Version | Previous Version | Text Only | Print | Product List | Glossary On
Versions: 1 2 3 4 5 6 7 8 9 10 11 12 13
000
FTUS46 KMTR 201733
TAFOAK
TAF
KOAK 201733Z 2018/2124 17015G22KT 5SM +RA BR OVC020
     FM202100 19014G20KT 4SM -RA BR OVC015 WS020/21050KT
     FM210000 19020G34KT 3SM +RA BKN015 OVC025 WS020/21050KT
     FM210200 19030G40KT 5SM -RA BR OVC020 WS020/21050KT
     FM211000 19025G35KT 6SM -RA BR OVC030
     FM211500 20015G20KT P6SM SHRA OVC050=

USA.gov is the U.S. government's official web portal to all federal, state and local government web resources and services.